Noordam — PHET — position and weather

sailwx.info

Track history (hours):
 
Tides and Currents Weather Stations Pressure Air Temp Water Temp Dewpoint Dewpoint Depression Visibility Wind Speed Wind Dir Waves Ship Positions

Noordam (Netherlands)

Ship's website: http://www.hollandamerica.com/cruiseships/Noordam

Last reported at 2019-Jul-23 10:00 UTC. Time now 2019-Jul-23 10:04 UTC.
Position N 54°43' W 131°14'.

Type: Passenger vessel. MMSI: 246028000.

Date/timePositionNaut miles runAvg speedWind from/ knotsBaromVisibWave heightAir tempDewpointWater temp
2019-Jul-23 10:00N 54°43' W 131°14'5 9.3
2019-Jul-23 09:26N 54°39' W 131°21'4 9.1
2019-Jul-23 09:00N 54°36' W 131°24'2862.1 140 / 101016.210.8 14.8
2019-Jul-23 08:59N 54°37' W 131°27'4 9.0
2019-Jul-23 08:31N 54°36' W 131°34'5 9.0
2019-Jul-23 08:00N 54°34' W 131°41'5325.9
2019-Jul-23 08:00N 54°30' W 131°36'4 7.6 160 / 221016.4 5.4 14.6
2019-Jul-23 07:28N 54°29' W 131°43'714.0
2019-Jul-23 07:00N 54°24' W 131°36'6 8.7 140 / 141016.310.8 15.1
2019-Jul-23 06:20N 54°25' W 131°26'514.6
2019-Jul-23 06:00N 54°24' W 131°18'2103.4 160 / 121016.610.8 15.5
2019-Jul-23 05:58N 54°24' W 131°21'5 9.7
2019-Jul-23 05:30N 54°22' W 131°14'5 9.4
2019-Jul-23 05:00N 54°20' W 131°07'2130.0
2019-Jul-23 05:00N 54°18' W 131°06'5 9.6 130 / 101016.610.8 15.7
2019-Jul-23 04:30N 54°20' W 130°58'4 9.0
2019-Jul-23 04:00N 54°18' W 130°51'2115.8
2019-Jul-23 04:00N 54°18' W 130°48'4 9.3 060 / 301015.910.8 15.5
2019-Jul-23 03:30N 54°14' W 130°43'714.2
2019-Jul-23 03:00N 54°11' W 130°33'5301.1
2019-Jul-23 03:00N 54°06' W 130°30'1010.0 040 / 181015.310.8 17.2
2019-Jul-23 02:00N 54°02' W 130°15'3166.4
2019-Jul-23 02:00N 54°00' W 130°12'5 9.4 1015.410.8 19.4
2019-Jul-23 01:30N 53°55' W 130°11'713.5
2019-Jul-23 01:01N 53°51' W 130°02'4212.4
2019-Jul-23 01:00N 53°48' W 130°00'4 7.9 160 / 201016.3 5.4 19.0
2019-Jul-23 00:30N 53°46' W 129°54'713.9
2019-Jul-23 00:00N 53°41' W 129°47'1919.3
2019-Jul-22 23:00N 53°24' W 129°30'4510.8 130 / 161016.3 5.4 20.0
2019-Jul-22 18:51N 52°42' W 129°02'614.2
2019-Jul-22 18:27N 52°38' W 128°55'614.2
2019-Jul-22 18:00N 52°32' W 128°52'918.1
2019-Jul-22 17:30N 52°23' W 128°50'917.8
2019-Jul-22 17:00N 52°15' W 128°48'917.7
2019-Jul-22 16:30N 52°06' W 128°44'917.7
2019-Jul-22 16:00N 51°57' W 128°40'4278.6
2019-Jul-22 16:00N 51°54' W 128°36'510.2 140 / 41013.810.8 16.212.8
2019-Jul-22 15:30N 51°49' W 128°37'917.0
2019-Jul-22 15:00N 51°41' W 128°33'5333.8
2019-Jul-22 15:00N 51°36' W 128°30'3 6.9 090 / 41013.910.8 16.413.4
2019-Jul-22 14:31N 51°33' W 128°29'917.4
2019-Jul-22 14:00N 51°24' W 128°25'151.1
2019-Jul-22 14:00N 51°24' W 128°24'817.4 070 / 61013.610.8 15.512.8
2019-Jul-22 13:30N 51°16' W 128°21'917.5
2019-Jul-22 13:00N 51°09' W 128°12'917.9
2019-Jul-22 12:30N 51°05' W 127°60'918.4
2019-Jul-22 12:00N 50°59' W 127°48'918.4
2019-Jul-22 11:30N 50°54' W 127°37'918.2
2019-Jul-22 11:00N 50°49' W 127°24'194.6
2019-Jul-22 11:00N 50°48' W 127°24'1218.2 030 / 41014.4 5.4 12.5
2019-Jul-22 10:20N 50°44' W 127°06'618.0
2019-Jul-22 10:00N 50°42' W 126°57'9538.4
2019-Jul-22 10:00N 50°36' W 126°48'3316.4 110 / 41014.9 5.4 11.9
2019-Jul-22 08:00N 50°24' W 126°00'1812.9 270 / 251014.7 5.4 15.7
2019-Jul-22 06:34N 50°21' W 125°31'218.1
2019-Jul-22 06:26N 50°20' W 125°28'614.0
2019-Jul-22 06:00N 50°15' W 125°23'5328.6
2019-Jul-22 06:00N 50°12' W 125°18'4 8.7 340 / 271013.810.8 17.7
2019-Jul-22 05:30N 50°08' W 125°21'612.9
2019-Jul-22 05:00N 50°03' W 125°15'4260.0
2019-Jul-22 05:00N 50°00' W 125°12'4 7.3 330 / 121013.410.8 17.8
2019-Jul-22 04:30N 49°57' W 125°09'1019.9
2019-Jul-22 04:00N 49°51' W 124°57'3212.9
2019-Jul-22 04:00N 49°48' W 124°54'714.7 360 / 71013.210.8 21.6
2019-Jul-22 03:30N 49°44' W 124°45'1020.1
2019-Jul-22 03:00N 49°38' W 124°32'2277.5
2019-Jul-22 03:00N 49°36' W 124°30'816.2 1013.210.8 22.8
2019-Jul-22 02:30N 49°33' W 124°19'1020.4
2019-Jul-22 02:00N 49°28' W 124°05'5370.6
2019-Jul-22 02:00N 49°24' W 124°00'612.4 1013.510.8 23.0
2019-Jul-22 01:30N 49°24' W 123°51'1020.6
2019-Jul-22 01:00N 49°20' W 123°36'1020.5
2019-Jul-22 00:31N 49°19' W 123°20'816.2
2019-Jul-22 00:00N 49°19' W 123°08'2 3.1
2019-Jul-21 23:30N 49°17' W 123°07'0 0.0
2019-Jul-21 23:00N 49°17' W 123°07'0 0.0
2019-Jul-21 22:30N 49°17' W 123°07'0 0.0
2019-Jul-21 22:00N 49°17' W 123°07'0 0.0
2019-Jul-21 21:30N 49°17' W 123°07'0 0.0
2019-Jul-21 21:00N 49°17' W 123°07'0 0.0
2019-Jul-21 20:30N 49°17' W 123°07'0 0.0
2019-Jul-21 20:00N 49°17' W 123°07'0 0.0
2019-Jul-21 19:30N 49°17' W 123°07'0 0.0
2019-Jul-21 19:00N 49°17' W 123°07'5746.8
2019-Jul-21 19:00N 49°12' W 123°06'510.9 010 / 21016.310.8 23.7
2019-Jul-21 18:30N 49°17' W 123°07'0 0.0
2019-Jul-21 18:00N 49°17' W 123°07'5669.5
2019-Jul-21 18:00N 49°12' W 123°06'511.0 330 / 31016.410.8 22.3
2019-Jul-21 17:30N 49°17' W 123°07'0 0.0
2019-Jul-21 17:00N 49°17' W 123°07'0 0.0
2019-Jul-21 16:30N 49°17' W 123°07'0 0.0
2019-Jul-21 16:00N 49°17' W 123°07'1105.0
2019-Jul-21 16:00N 49°18' W 123°06'1 1.6 020 / 21017.310.8 24.0
2019-Jul-21 15:30N 49°17' W 123°07'0 0.0
2019-Jul-21 15:00N 49°17' W 123°07'5844.2
2019-Jul-21 15:00N 49°12' W 123°06'511.0 330 / 21017.310.8 20.0
2019-Jul-21 14:30N 49°17' W 123°07'0 0.0
2019-Jul-21 14:00N 49°17' W 123°07'5329.1
2019-Jul-21 14:00N 49°12' W 123°06'611.9 100 / 21016.0 18.0 9.3
2019-Jul-21 13:30N 49°18' W 123°06'4 7.5
2019-Jul-21 13:00N 49°19' W 123°12'159.5
2019-Jul-21 13:00N 49°18' W 123°12'511.3 080 / 41015.8 16.3 6.6
2019-Jul-21 12:30N 49°18' W 123°20'611.7
2019-Jul-21 12:00N 49°19' W 123°29'3212.7
2019-Jul-21 12:00N 49°18' W 123°24'918.8 310 / 111015.5 17.6 8.5
2019-Jul-21 11:30N 49°19' W 123°38'510.8
2019-Jul-21 11:01N 49°19' W 123°46'3185.1
2019-Jul-21 11:00N 49°18' W 123°42'917.8 030 / 11015.4 17.6 8.8
2019-Jul-21 10:30N 49°21' W 123°54'611.2
2019-Jul-21 10:00N 49°22' W 124°03'5285.9
2019-Jul-21 10:00N 49°18' W 124°00'919.1 270 / 41015.510.8 17.5 8.6
2019-Jul-21 09:30N 49°24' W 124°11'611.1
2019-Jul-21 09:00N 49°26' W 124°19'2108.4
2019-Jul-21 09:00N 49°24' W 124°18'714.9 240 / 41015.510.8 16.6 7.2
2019-Jul-21 08:30N 49°28' W 124°27'510.8
2019-Jul-21 08:00N 49°32' W 124°33'3207.8
2019-Jul-21 08:00N 49°30' W 124°30'817.2 040 / 51015.510.8 17.3 7.7
2019-Jul-21 07:30N 49°36' W 124°39'611.4
2019-Jul-21 07:00N 49°40' W 124°45'5332.1
2019-Jul-21 07:00N 49°36' W 124°42'1020.8 260 / 51015.610.8 17.9 7.0
2019-Jul-21 06:30N 49°44' W 124°51'511.1
2019-Jul-21 06:00N 49°49' W 124°56'299.7
2019-Jul-21 06:00N 49°48' W 124°54'715.1 300 / 31015.710.8 17.8
2019-Jul-21 05:30N 49°53' W 125°03'612.1
2019-Jul-21 05:00N 49°57' W 125°09'4341.7
2019-Jul-21 05:00N 49°54' W 125°06'1019.7 300 / 41015.910.8 18.4
2019-Jul-21 04:30N 50°02' W 125°14'612.1
2019-Jul-21 04:00N 50°07' W 125°19'1100.1
2019-Jul-21 04:00N 50°06' W 125°18'815.9 1016.110.8 17.2
2019-Jul-21 03:30N 50°13' W 125°23'815.9
2019-Jul-21 03:00N 50°20' W 125°27'3195.3
2019-Jul-21 03:00N 50°18' W 125°24'1223.3 330 / 101016.410.8 17.7
2019-Jul-21 02:29N 50°22' W 125°41'3221.4
2019-Jul-21 01:00N 50°30' W 126°30'2116.4 250 / 161018.8 5.4 15.5
2019-Jul-20 23:42N 50°42' W 126°57'1420.2
2019-Jul-20 23:00N 50°48' W 127°18'424.4 320 / 121020.4 5.4 12.7
2019-Jul-20 22:49N 50°49' W 127°25'621.0
2019-Jul-20 22:30N 50°52' W 127°34'1020.7
2019-Jul-20 22:00N 50°59' W 127°46'6373.1
2019-Jul-20 22:00N 50°54' W 127°42'1633.0 290 / 101022.3 0.3 13.0
2019-Jul-20 21:30N 51°09' W 127°52'1020.2
2019-Jul-20 21:00N 51°19' W 127°52'1020.2
2019-Jul-20 20:31N 51°29' W 127°52'1020.5
2019-Jul-20 20:01N 51°39' W 127°55'1020.7
2019-Jul-20 19:30N 51°49' W 127°57'1020.7
2019-Jul-20 19:00N 51°60' W 127°56'6372.6
2019-Jul-20 19:00N 51°54' W 127°54'1632.6 020 / 41021.410.8 16.6
2019-Jul-20 18:30N 52°10' W 127°52'3 4.9
2019-Jul-20 18:00N 52°12' W 127°54'747.3 090 / 51021.910.8 15.0
2019-Jul-20 17:50N 52°18' W 127°59'413.4
2019-Jul-20 17:31N 52°18' W 128°07'713.1
2019-Jul-20 17:00N 52°15' W 128°16'3254.3
2019-Jul-20 17:00N 52°12' W 128°18'815.7 090 / 91022.4 5.4 14.0
2019-Jul-20 16:30N 52°16' W 128°29'1019.6
2019-Jul-20 16:00N 52°14' W 128°45'3177.6
2019-Jul-20 16:00N 52°12' W 128°42'1224.3 090 / 131022.3 13.0
2019-Jul-20 15:30N 52°15' W 129°00'1019.4
2019-Jul-20 15:00N 52°18' W 129°16'2141.5
2019-Jul-20 15:00N 52°18' W 129°12'1225.3 150 / 71022.310.8 14.0
2019-Jul-20 14:30N 52°21' W 129°31'713.6
2019-Jul-20 14:00N 52°24' W 129°42'4224.6 170 / 81021.4 14.511.5
2019-Jul-20 13:58N 52°27' W 129°48'3320.7
2019-Jul-20 12:22N 52°54' W 130°18'718.1
2019-Jul-20 12:00N 53°00' W 130°24'427.0 150 / 131021.2 14.411.4
2019-Jul-20 11:50N 53°03' W 130°28'1220.2
2019-Jul-20 11:14N 53°14' W 130°37'310.7
2019-Jul-20 11:00N 53°12' W 130°36'8279.0 150 / 151021.3 14.411.6
2019-Jul-20 10:58N 53°19' W 130°41'919.8
2019-Jul-20 10:30N 53°27' W 130°48'1019.4
2019-Jul-20 10:00N 53°37' W 130°51'2137.4
2019-Jul-20 10:00N 53°36' W 130°48'1123.6 150 / 141021.510.8 13.910.9
2019-Jul-20 09:31N 53°46' W 130°56'1019.9
2019-Jul-20 09:00N 53°56' W 131°00'2142.3
2019-Jul-20 09:00N 53°54' W 131°00'1225.0 160 / 131021.610.8 14.510.9
2019-Jul-20 08:30N 54°06' W 131°02'1020.3
2019-Jul-20 08:00N 54°16' W 131°00'612.1
2019-Jul-20 07:30N 54°22' W 131°01'917.4
2019-Jul-20 07:00N 54°29' W 131°10'2138.2
2019-Jul-20 07:00N 54°30' W 131°06'917.7 170 / 91021.710.8 14.2
2019-Jul-20 06:29N 54°38' W 131°14'918.0
2019-Jul-20 06:00N 54°46' W 131°11'5462.1
2019-Jul-20 06:00N 54°42' W 131°06'1326.8 190 / 71021.810.8 14.3
2019-Jul-20 05:30N 54°55' W 131°09'510.2
2019-Jul-20 05:00N 55°00' W 131°06'747.0 180 / 141021.710.8 14.8
2019-Jul-20 04:50N 55°07' W 131°10'18 4.8
2019-Jul-20 01:00N 55°18' W 131°36'0 0.0 170 / 81020.7 5.4 16.1
2019-Jul-20 00:00N 55°18' W 131°36'0 0.0 200 / 101020.6 5.4 15.8
2019-Jul-19 23:00N 55°18' W 131°36'0 0.0 140 / 61021.3 5.4 17.0
2019-Jul-19 22:00N 55°18' W 131°36'0 0.0 220 / 71021.3 5.4 14.0
2019-Jul-19 21:00N 55°18' W 131°36'0 0.0 180 / 81020.3 5.4 17.0
2019-Jul-19 20:00N 55°18' W 131°36'0 0.0 160 / 31020.1 5.4 15.9
2019-Jul-19 19:00N 55°18' W 131°36'3 1.7 220 / 41019.9 5.4 15.2
2019-Jul-19 17:00N 55°18' W 131°42'1818.2 150 / 161020.3 5.4 14.0 19.0
2019-Jul-19 16:00N 55°30' W 132°06'1615.7 180 / 131019.3 5.4 14.0 21.0
2019-Jul-19 15:00N 55°42' W 132°24'2120.6 180 / 151017.3 13.112.9
2019-Jul-19 14:00N 56°00' W 132°42'1413.7 140 / 141017.3 5.4 14.0 21.0
2019-Jul-19 13:00N 56°12' W 132°54'1817.7 130 / 41016.8 12.712.3
2019-Jul-19 12:00N 56°18' W 133°24'1211.7 070 / 61016.3 10.610.2 9.0
2019-Jul-19 11:00N 56°12' W 133°42'2524.6 030 / 61016.2 5.4 11.411.0
2019-Jul-19 10:00N 55°54' W 134°12'198198.1 090 / 151016.0 5.4 11.511.3
2019-Jul-19 09:00N 59°12' W 134°24'156156.0 160 / 51015.710.8 11.711.5
2019-Jul-19 08:00N 56°36' W 134°24'1818.0 160 / 121015.710.8 12.011.6
2019-Jul-19 07:00N 56°54' W 134°24'2222.2 200 / 71015.310.8 12.3
2019-Jul-19 06:00N 57°12' W 134°00'1515.4 1015.0 11.4
2019-Jul-19 05:00N 57°24' W 133°42'2424.2 200 / 151014.7 5.4 12.5
2019-Jul-19 04:00N 57°48' W 133°48'2020.4 150 / 131014.3 5.4 11.2
2019-Jul-19 03:00N 58°06' W 134°06'9 8.7 170 / 221013.8 5.4 12.7
2019-Jul-19 02:00N 58°12' W 134°18'7 3.4 140 / 111013.5 2.2 13.0
2019-Jul-19 00:00N 58°18' W 134°24'0 0.0 140 / 61012.4 5.4 14.1
2019-Jul-18 23:00N 58°18' W 134°24'0 0.0 150 / 101011.3 5.4 14.0 21.0
2019-Jul-18 22:00N 58°18' W 134°24'0 0.0 140 / 121011.3 5.4 14.0 21.0
2019-Jul-18 21:00N 58°18' W 134°24'0 0.0 160 / 81011.3 5.4 13.0 21.0
2019-Jul-18 20:00N 58°18' W 134°24'0 0.0 140 / 101010.4 2.2 12.9
2019-Jul-18 17:00N 58°18' W 134°24'0 0.0 150 / 81008.3 5.4 12.0 20.0
2019-Jul-18 16:00N 58°18' W 134°24'6 6.0 140 / 121007.3 5.4 12.0 21.0
2019-Jul-18 15:00N 58°12' W 134°24'0 0.0 140 / 111006.3 5.4 12.0 21.0
2019-Jul-18 14:00N 58°12' W 134°24'6 6.3 130 / 91005.2 12.411.8
2019-Jul-18 13:00N 58°12' W 134°12'9 8.7 140 / 111004.5 12.511.6
2019-Jul-18 12:00N 58°06' W 134°24'9 8.7 150 / 51003.8 12.711.4
2019-Jul-18 11:00N 58°12' W 134°36'9 8.7 140 / 161003.210.8 13.311.4
2019-Jul-18 10:00N 58°18' W 134°48'1413.5 130 / 121002.910.8 13.110.4
2019-Jul-18 09:00N 58°30' W 135°00'1212.4 150 / 121002.210.8 14.3 9.7
2019-Jul-18 08:00N 58°42' W 135°06'31 6.3 200 / 131002.110.8 15.1 9.1
2019-Jul-18 03:00N 59°12' W 135°24'0 0.0 080 / 3998.5 5.4 17.8
2019-Jul-18 02:00N 59°12' W 135°24'0 0.0 030 / 9998.2 5.4 18.2
2019-Jul-18 01:00N 59°12' W 135°24'0 0.0 310 / 5998.1 5.4 18.2
2019-Jul-18 00:00N 59°12' W 135°24'0 0.0 030 / 8997.6 5.4 18.5
2019-Jul-17 22:00N 59°12' W 135°24'0 0.0 260 / 161002.3 5.4 17.0 20.0
2019-Jul-17 17:00N 59°12' W 135°24'0 0.0 120 / 51000.3 5.4 14.0 20.0
2019-Jul-17 16:00N 59°12' W 135°24'0 0.0 110 / 51000.3 5.4 14.0 20.0
2019-Jul-17 15:00N 59°12' W 135°24'0 0.0 060 / 51001.3 5.4 14.0 19.0
2019-Jul-17 14:00N 59°12' W 135°24'7 6.7 090 / 21000.0 12.712.3
2019-Jul-17 13:00N 59°06' W 135°18'7 6.7 010 / 141000.2 11.411.4
2019-Jul-17 12:00N 59°00' W 135°12'1212.0 340 / 171000.4 11.911.9
2019-Jul-17 11:00N 58°48' W 135°12'7 6.8 340 / 121000.610.8 12.712.5
2019-Jul-17 10:00N 58°42' W 135°06'1212.4 330 / 171001.110.8 13.413.2
2019-Jul-17 09:00N 58°30' W 135°00'6 6.0 360 / 111001.710.8 13.012.8
2019-Jul-17 08:00N 58°24' W 135°00'1212.0 330 / 161002.110.8 13.312.9
2019-Jul-17 07:00N 58°12' W 135°00'5 4.9 030 / 181002.5 5.4 13.7
2019-Jul-17 06:01N 58°09' W 135°07'3163.6
2019-Jul-17 06:00N 58°06' W 135°06'710.8 030 / 231002.1 5.4 13.9
2019-Jul-17 05:22N 58°10' W 135°17'3 8.9
2019-Jul-17 05:00N 58°11' W 135°22'62050.6
2019-Jul-17 05:00N 58°06' W 135°18'1019.1 070 / 251002.5 5.4 14.5
2019-Jul-17 04:29N 58°13' W 135°30'5 9.6
2019-Jul-17 04:00N 58°16' W 135°38'4258.8
2019-Jul-17 04:00N 58°12' W 135°36'815.6 110 / 181003.410.8 14.6
2019-Jul-17 03:30N 58°18' W 135°45'5 9.4
2019-Jul-17 03:01N 58°19' W 135°54'183.9
2019-Jul-17 03:00N 58°18' W 135°54'714.2 040 / 151003.810.8 12.7
2019-Jul-17 02:31N 58°25' W 135°58'611.9
2019-Jul-17 02:00N 58°30' W 136°03'714.0
2019-Jul-17 01:30N 58°37' W 136°05'714.1
2019-Jul-17 01:00N 58°42' W 136°13'146.6
2019-Jul-17 01:00N 58°42' W 136°12'815.7 300 / 101006.0 2.2 11.1
2019-Jul-17 00:30N 58°47' W 136°24'712.7
2019-Jul-17 00:00N 58°48' W 136°36'335.5 270 / 31006.7 2.2 9.7
2019-Jul-16 23:54N 58°51' W 136°37'910.1
2019-Jul-16 23:00N 58°54' W 136°54'7 6.8 140 / 21009.3 5.4 9.0 20.0
2019-Jul-16 22:00N 59°00' W 137°00'7 6.8 270 / 31010.3 2.2 9.0 22.0
2019-Jul-16 21:00N 58°54' W 136°54'0 0.0 080 / 31010.3 2.2 8.0 19.0
2019-Jul-16 20:00N 58°54' W 136°54'1413.8 270 / 141009.3 2.2 9.0
2019-Jul-16 19:00N 58°48' W 136°30'7 8.9 330 / 71010.1 2.2 9.1
2019-Jul-16 18:15N 58°45' W 136°19'313.4
2019-Jul-16 18:00N 58°43' W 136°14'1161.2
2019-Jul-16 18:00N 58°42' W 136°12'511.3 050 / 51010.1 2.2 10.5
2019-Jul-16 17:30N 58°38' W 136°06'612.8
2019-Jul-16 17:00N 58°31' W 136°04'2151.4
2019-Jul-16 17:00N 58°30' W 136°00'4 8.7 020 / 61011.3 5.4 11.0 20.0
2019-Jul-16 16:30N 58°26' W 135°59'5 9.6
2019-Jul-16 16:01N 58°21' W 136°01'3194.8
2019-Jul-16 16:00N 58°18' W 136°00'613.4 010 / 101012.3 5.4 13.0 20.0
2019-Jul-16 15:31N 58°18' W 136°12'917.3
2019-Jul-16 15:00N 58°12' W 136°24'8 8.8 070 / 141010.2 1.1 11.511.1
2019-Jul-16 14:08N 58°10' W 136°38'1210.8
2019-Jul-16 13:00N 58°06' W 137°00'1414.0 110 / 221010.8 12.011.2
2019-Jul-16 12:00N 58°12' W 137°24'1111.2 130 / 241010.4 13.413.0
2019-Jul-16 11:00N 58°18' W 137°42'1413.9 110 / 271010.910.8 13.212.5
2019-Jul-16 10:00N 58°24' W 138°06'1515.2 120 / 251011.310.8 13.812.5
2019-Jul-16 09:00N 58°36' W 138°24'1615.6 120 / 211011.710.8 14.412.2
2019-Jul-16 08:00N 58°36' W 138°54'1312.5 120 / 211012.010.8 14.011.4
2019-Jul-16 07:00N 58°36' W 139°18'1413.9 160 / 191012.210.8 15.0
2019-Jul-16 06:00N 58°42' W 139°42'1615.6 160 / 171012.410.8 14.9
2019-Jul-16 05:00N 58°42' W 140°12'1212.5 160 / 161012.510.8 15.0
2019-Jul-16 04:00N 58°42' W 140°36'1413.8 170 / 151012.710.8 15.1
2019-Jul-16 03:00N 58°48' W 141°00'1212.4 170 / 171012.910.8 14.9
2019-Jul-16 02:00N 58°48' W 141°24'1615.5 160 / 201013.110.8 15.0
2019-Jul-16 01:00N 58°48' W 141°54'1212.4 170 / 151013.310.8 15.1
2019-Jul-16 00:00N 58°48' W 142°18'1413.8 170 / 131013.310.8 14.5
2019-Jul-15 23:00N 58°54' W 142°42'1212.4 180 / 131015.310.8 15.0 20.0
2019-Jul-15 22:00N 58°54' W 143°06'1515.5 180 / 201015.310.8 15.0 20.0
2019-Jul-15 21:00N 58°54' W 143°36'1716.6 190 / 131013.310.8 14.0 20.0
2019-Jul-15 20:00N 59°00' W 144°06'1212.4 180 / 171012.110.8 14.0
2019-Jul-15 19:00N 59°00' W 144°30'1212.4 160 / 191012.010.8 13.9
2019-Jul-15 18:00N 59°00' W 144°54'2512.7 160 / 211011.610.8 14.0
2019-Jul-15 16:00N 59°06' W 145°42'1515.4 190 / 181011.310.8 14.0 20.0
2019-Jul-15 15:00N 59°06' W 146°12'2512.3 170 / 181010.9 13.713.3
2019-Jul-15 13:00N 59°18' W 146°54'1515.1 130 / 221010.8 13.813.4
2019-Jul-15 12:00N 59°30' W 147°12'3010.2 120 / 241010.9 13.6
2019-Jul-15 09:00N 59°30' W 148°12'2412.2 100 / 231010.810.8 13.313.1
2019-Jul-15 07:00N 59°42' W 148°54'1313.5 070 / 341010.6 2.2 12.8
2019-Jul-15 06:00N 59°48' W 149°18'6 6.0 060 / 251011.010.8 12.7
2019-Jul-15 05:00N 59°54' W 149°18'12 3.1 1011.7 5.4 12.9
2019-Jul-15 01:00N 60°06' W 149°24'0 0.0 190 / 151012.7 5.4 13.8
2019-Jul-15 00:00N 60°06' W 149°24'0 0.0 190 / 151012.6 2.2 13.8
2019-Jul-14 23:00N 60°06' W 149°24'0 0.0 180 / 161015.3 5.4 14.0 20.0
2019-Jul-14 22:00N 60°06' W 149°24'0 0.0 200 / 101013.3 5.4 14.0 20.0
2019-Jul-14 21:00N 60°06' W 149°24'0 0.0 210 / 61013.3 5.4 13.0 20.0
2019-Jul-14 20:00N 60°06' W 149°24'0 0.0 170 / 51012.8 2.2 13.0
2019-Jul-14 19:00N 60°06' W 149°24'0 0.0 140 / 31013.1 5.4 12.8
2019-Jul-14 18:00N 60°06' W 149°24'0 0.0 280 / 31013.3 2.2 13.0
2019-Jul-14 17:00N 60°06' W 149°24'0 0.0 250 / 21014.3 5.4 13.0 20.0
2019-Jul-14 16:00N 60°06' W 149°24'0 0.0 240 / 41014.3 5.4 12.0 19.0
2019-Jul-14 15:00N 60°06' W 149°24'12 4.1 210 / 21014.3 5.4 12.0 20.0
2019-Jul-14 12:00N 59°54' W 149°18'7 6.7 220 / 51013.9 13.3
2019-Jul-14 11:00N 59°48' W 149°24'1313.5 060 / 81014.2 5.4 12.911.6
2019-Jul-14 10:00N 59°42' W 149°00'1110.9 090 / 161013.910.8 13.711.8
2019-Jul-14 09:00N 59°36' W 148°42'1413.6 090 / 141013.910.8 13.811.6
2019-Jul-14 08:00N 59°30' W 148°18'1413.6 080 / 141013.810.8 13.811.6
2019-Jul-14 07:00N 59°24' W 147°54'1413.6 080 / 111013.710.8 13.4
2019-Jul-14 06:00N 59°18' W 147°30'1212.3 080 / 101013.710.8 13.4
2019-Jul-14 05:00N 59°18' W 147°06'1413.7 080 / 101013.810.8 13.7
2019-Jul-14 04:00N 59°12' W 146°42'1111.0 070 / 91013.810.8 13.7
2019-Jul-14 03:00N 59°06' W 146°24'2512.3 080 / 81014.010.8 14.0
2019-Jul-14 01:00N 59°06' W 145°36'1413.7 170 / 101014.310.8 14.4
2019-Jul-14 00:00N 59°00' W 145°12'1212.4 140 / 71014.610.8 15.2
2019-Jul-13 23:00N 59°00' W 144°48'1212.4 150 / 21016.3 5.4 15.0 20.0
2019-Jul-13 22:00N 59°00' W 144°24'1413.8 060 / 31015.3 5.4 15.0 20.0
2019-Jul-13 21:00N 58°54' W 144°00'1212.4 260 / 31015.3 5.4 14.0 20.0
2019-Jul-13 20:00N 58°54' W 143°36'1212.4 110 / 11014.810.8 14.4
2019-Jul-13 19:00N 58°54' W 143°12'1413.8 210 / 61015.0 5.4 13.8
2019-Jul-13 18:00N 58°48' W 142°48'3812.6 170 / 161015.010.8 13.6
2019-Jul-13 15:00N 58°42' W 141°36'1212.5 240 / 21015.1 13.9 9.9
2019-Jul-13 14:00N 58°42' W 141°12'1615.6 180 / 101015.3 14.010.2
2019-Jul-13 13:00N 58°42' W 140°42'1413.9 200 / 151015.3 14.010.2
2019-Jul-13 12:00N 58°36' W 140°18'1312.5 220 / 61015.710.8 14.111.1
2019-Jul-13 11:00N 58°36' W 139°54'   220 / 131016.110.8 13.911.1
Track history (hours):
 
Tides and Currents Weather Stations Pressure Air Temp Water Temp Dewpoint Dewpoint Depression Visibility Wind Speed Wind Dir Waves Ship Positions

Noordam (Netherlands)

Ship's website: http://www.hollandamerica.com/cruiseships/Noordam

Last reported at 2019-Jul-23 10:00 UTC. Time now 2019-Jul-23 10:04 UTC.
Position N 54°43' W 131°14'.

Type: Passenger vessel. MMSI: 246028000.

Date/timePositionNaut miles runAvg speedWind from/ knotsBaromVisibWave heightAir tempDewpointWater temp
2019-Jul-23 10:00N 54°43' W 131°14'5 9.3
2019-Jul-23 09:26N 54°39' W 131°21'4 9.1
2019-Jul-23 09:00N 54°36' W 131°24'2862.1 140 / 101016.210.8 14.8
2019-Jul-23 08:59N 54°37' W 131°27'4 9.0
2019-Jul-23 08:31N 54°36' W 131°34'5 9.0
2019-Jul-23 08:00N 54°34' W 131°41'5325.9
2019-Jul-23 08:00N 54°30' W 131°36'4 7.6 160 / 221016.4 5.4 14.6
2019-Jul-23 07:28N 54°29' W 131°43'714.0
2019-Jul-23 07:00N 54°24' W 131°36'6 8.7 140 / 141016.310.8 15.1
2019-Jul-23 06:20N 54°25' W 131°26'514.6
2019-Jul-23 06:00N 54°24' W 131°18'2103.4 160 / 121016.610.8 15.5
2019-Jul-23 05:58N 54°24' W 131°21'5 9.7
2019-Jul-23 05:30N 54°22' W 131°14'5 9.4
2019-Jul-23 05:00N 54°20' W 131°07'2130.0
2019-Jul-23 05:00N 54°18' W 131°06'5 9.6 130 / 101016.610.8 15.7
2019-Jul-23 04:30N 54°20' W 130°58'4 9.0
2019-Jul-23 04:00N 54°18' W 130°51'2115.8
2019-Jul-23 04:00N 54°18' W 130°48'4 9.3 060 / 301015.910.8 15.5
2019-Jul-23 03:30N 54°14' W 130°43'714.2
2019-Jul-23 03:00N 54°11' W 130°33'5301.1
2019-Jul-23 03:00N 54°06' W 130°30'1010.0 040 / 181015.310.8 17.2
2019-Jul-23 02:00N 54°02' W 130°15'3166.4
2019-Jul-23 02:00N 54°00' W 130°12'5 9.4 1015.410.8 19.4
2019-Jul-23 01:30N 53°55' W 130°11'713.5
2019-Jul-23 01:01N 53°51' W 130°02'4212.4
2019-Jul-23 01:00N 53°48' W 130°00'4 7.9 160 / 201016.3 5.4 19.0
2019-Jul-23 00:30N 53°46' W 129°54'713.9
2019-Jul-23 00:00N 53°41' W 129°47'1919.3
2019-Jul-22 23:00N 53°24' W 129°30'4510.8 130 / 161016.3 5.4 20.0
2019-Jul-22 18:51N 52°42' W 129°02'614.2
2019-Jul-22 18:27N 52°38' W 128°55'614.2
2019-Jul-22 18:00N 52°32' W 128°52'918.1
2019-Jul-22 17:30N 52°23' W 128°50'917.8
2019-Jul-22 17:00N 52°15' W 128°48'917.7
2019-Jul-22 16:30N 52°06' W 128°44'917.7
2019-Jul-22 16:00N 51°57' W 128°40'4278.6
2019-Jul-22 16:00N 51°54' W 128°36'510.2 140 / 41013.810.8 16.212.8
2019-Jul-22 15:30N 51°49' W 128°37'917.0
2019-Jul-22 15:00N 51°41' W 128°33'5333.8
2019-Jul-22 15:00N 51°36' W 128°30'3 6.9 090 / 41013.910.8 16.413.4
2019-Jul-22 14:31N 51°33' W 128°29'917.4
2019-Jul-22 14:00N 51°24' W 128°25'151.1
2019-Jul-22 14:00N 51°24' W 128°24'817.4 070 / 61013.610.8 15.512.8
2019-Jul-22 13:30N 51°16' W 128°21'917.5
2019-Jul-22 13:00N 51°09' W 128°12'917.9
2019-Jul-22 12:30N 51°05' W 127°60'918.4
2019-Jul-22 12:00N 50°59' W 127°48'918.4
2019-Jul-22 11:30N 50°54' W 127°37'918.2
2019-Jul-22 11:00N 50°49' W 127°24'194.6
2019-Jul-22 11:00N 50°48' W 127°24'1218.2 030 / 41014.4 5.4 12.5
2019-Jul-22 10:20N 50°44' W 127°06'618.0
2019-Jul-22 10:00N 50°42' W 126°57'9538.4
2019-Jul-22 10:00N 50°36' W 126°48'3316.4 110 / 41014.9 5.4 11.9
2019-Jul-22 08:00N 50°24' W 126°00'1812.9 270 / 251014.7 5.4 15.7
2019-Jul-22 06:34N 50°21' W 125°31'218.1
2019-Jul-22 06:26N 50°20' W 125°28'614.0
2019-Jul-22 06:00N 50°15' W 125°23'5328.6
2019-Jul-22 06:00N 50°12' W 125°18'4 8.7 340 / 271013.810.8 17.7
2019-Jul-22 05:30N 50°08' W 125°21'612.9
2019-Jul-22 05:00N 50°03' W 125°15'4260.0
2019-Jul-22 05:00N 50°00' W 125°12'4 7.3 330 / 121013.410.8 17.8
2019-Jul-22 04:30N 49°57' W 125°09'1019.9
2019-Jul-22 04:00N 49°51' W 124°57'3212.9
2019-Jul-22 04:00N 49°48' W 124°54'714.7 360 / 71013.210.8 21.6
2019-Jul-22 03:30N 49°44' W 124°45'1020.1
2019-Jul-22 03:00N 49°38' W 124°32'2277.5
2019-Jul-22 03:00N 49°36' W 124°30'816.2 1013.210.8 22.8
2019-Jul-22 02:30N 49°33' W 124°19'1020.4
2019-Jul-22 02:00N 49°28' W 124°05'5370.6
2019-Jul-22 02:00N 49°24' W 124°00'612.4 1013.510.8 23.0
2019-Jul-22 01:30N 49°24' W 123°51'1020.6
2019-Jul-22 01:00N 49°20' W 123°36'1020.5
2019-Jul-22 00:31N 49°19' W 123°20'816.2
2019-Jul-22 00:00N 49°19' W 123°08'2 3.1
2019-Jul-21 23:30N 49°17' W 123°07'0 0.0
2019-Jul-21 23:00N 49°17' W 123°07'0 0.0
2019-Jul-21 22:30N 49°17' W 123°07'0 0.0
2019-Jul-21 22:00N 49°17' W 123°07'0 0.0
2019-Jul-21 21:30N 49°17' W 123°07'0 0.0
2019-Jul-21 21:00N 49°17' W 123°07'0 0.0
2019-Jul-21 20:30N 49°17' W 123°07'0 0.0
2019-Jul-21 20:00N 49°17' W 123°07'0 0.0
2019-Jul-21 19:30N 49°17' W 123°07'0 0.0
2019-Jul-21 19:00N 49°17' W 123°07'5746.8
2019-Jul-21 19:00N 49°12' W 123°06'510.9 010 / 21016.310.8 23.7
2019-Jul-21 18:30N 49°17' W 123°07'0 0.0
2019-Jul-21 18:00N 49°17' W 123°07'5669.5
2019-Jul-21 18:00N 49°12' W 123°06'511.0 330 / 31016.410.8 22.3
2019-Jul-21 17:30N 49°17' W 123°07'0 0.0
2019-Jul-21 17:00N 49°17' W 123°07'0 0.0
2019-Jul-21 16:30N 49°17' W 123°07'0 0.0
2019-Jul-21 16:00N 49°17' W 123°07'1105.0
2019-Jul-21 16:00N 49°18' W 123°06'1 1.6 020 / 21017.310.8 24.0
2019-Jul-21 15:30N 49°17' W 123°07'0 0.0
2019-Jul-21 15:00N 49°17' W 123°07'5844.2
2019-Jul-21 15:00N 49°12' W 123°06'511.0 330 / 21017.310.8 20.0
2019-Jul-21 14:30N 49°17' W 123°07'0 0.0
2019-Jul-21 14:00N 49°17' W 123°07'5329.1
2019-Jul-21 14:00N 49°12' W 123°06'611.9 100 / 21016.0 18.0 9.3
2019-Jul-21 13:30N 49°18' W 123°06'4 7.5
2019-Jul-21 13:00N 49°19' W 123°12'159.5
2019-Jul-21 13:00N 49°18' W 123°12'511.3 080 / 41015.8 16.3 6.6
2019-Jul-21 12:30N 49°18' W 123°20'611.7
2019-Jul-21 12:00N 49°19' W 123°29'3212.7
2019-Jul-21 12:00N 49°18' W 123°24'918.8 310 / 111015.5 17.6 8.5
2019-Jul-21 11:30N 49°19' W 123°38'510.8
2019-Jul-21 11:01N 49°19' W 123°46'3185.1
2019-Jul-21 11:00N 49°18' W 123°42'917.8 030 / 11015.4 17.6 8.8
2019-Jul-21 10:30N 49°21' W 123°54'611.2
2019-Jul-21 10:00N 49°22' W 124°03'5285.9
2019-Jul-21 10:00N 49°18' W 124°00'919.1 270 / 41015.510.8 17.5 8.6
2019-Jul-21 09:30N 49°24' W 124°11'611.1
2019-Jul-21 09:00N 49°26' W 124°19'2108.4
2019-Jul-21 09:00N 49°24' W 124°18'714.9 240 / 41015.510.8 16.6 7.2
2019-Jul-21 08:30N 49°28' W 124°27'510.8
2019-Jul-21 08:00N 49°32' W 124°33'3207.8
2019-Jul-21 08:00N 49°30' W 124°30'817.2 040 / 51015.510.8 17.3 7.7
2019-Jul-21 07:30N 49°36' W 124°39'611.4
2019-Jul-21 07:00N 49°40' W 124°45'5332.1
2019-Jul-21 07:00N 49°36' W 124°42'1020.8 260 / 51015.610.8 17.9 7.0
2019-Jul-21 06:30N 49°44' W 124°51'511.1
2019-Jul-21 06:00N 49°49' W 124°56'299.7
2019-Jul-21 06:00N 49°48' W 124°54'715.1 300 / 31015.710.8 17.8
2019-Jul-21 05:30N 49°53' W 125°03'612.1
2019-Jul-21 05:00N 49°57' W 125°09'4341.7
2019-Jul-21 05:00N 49°54' W 125°06'1019.7 300 / 41015.910.8 18.4
2019-Jul-21 04:30N 50°02' W 125°14'612.1
2019-Jul-21 04:00N 50°07' W 125°19'1100.1
2019-Jul-21 04:00N 50°06' W 125°18'815.9 1016.110.8 17.2
2019-Jul-21 03:30N 50°13' W 125°23'815.9
2019-Jul-21 03:00N 50°20' W 125°27'3195.3
2019-Jul-21 03:00N 50°18' W 125°24'1223.3 330 / 101016.410.8 17.7
2019-Jul-21 02:29N 50°22' W 125°41'3221.4
2019-Jul-21 01:00N 50°30' W 126°30'2116.4 250 / 161018.8 5.4 15.5
2019-Jul-20 23:42N 50°42' W 126°57'1420.2
2019-Jul-20 23:00N 50°48' W 127°18'424.4 320 / 121020.4 5.4 12.7
2019-Jul-20 22:49N 50°49' W 127°25'621.0
2019-Jul-20 22:30N 50°52' W 127°34'1020.7
2019-Jul-20 22:00N 50°59' W 127°46'6373.1
2019-Jul-20 22:00N 50°54' W 127°42'1633.0 290 / 101022.3 0.3 13.0
2019-Jul-20 21:30N 51°09' W 127°52'1020.2
2019-Jul-20 21:00N 51°19' W 127°52'1020.2
2019-Jul-20 20:31N 51°29' W 127°52'1020.5
2019-Jul-20 20:01N 51°39' W 127°55'1020.7
2019-Jul-20 19:30N 51°49' W 127°57'1020.7
2019-Jul-20 19:00N 51°60' W 127°56'6372.6
2019-Jul-20 19:00N 51°54' W 127°54'1632.6 020 / 41021.410.8 16.6
2019-Jul-20 18:30N 52°10' W 127°52'3 4.9
2019-Jul-20 18:00N 52°12' W 127°54'747.3 090 / 51021.910.8 15.0
2019-Jul-20 17:50N 52°18' W 127°59'413.4
2019-Jul-20 17:31N 52°18' W 128°07'713.1
2019-Jul-20 17:00N 52°15' W 128°16'3254.3
2019-Jul-20 17:00N 52°12' W 128°18'815.7 090 / 91022.4 5.4 14.0
2019-Jul-20 16:30N 52°16' W 128°29'1019.6
2019-Jul-20 16:00N 52°14' W 128°45'3177.6
2019-Jul-20 16:00N 52°12' W 128°42'1224.3 090 / 131022.3 13.0
2019-Jul-20 15:30N 52°15' W 129°00'1019.4
2019-Jul-20 15:00N 52°18' W 129°16'2141.5
2019-Jul-20 15:00N 52°18' W 129°12'1225.3 150 / 71022.310.8 14.0
2019-Jul-20 14:30N 52°21' W 129°31'713.6
2019-Jul-20 14:00N 52°24' W 129°42'4224.6 170 / 81021.4 14.511.5
2019-Jul-20 13:58N 52°27' W 129°48'3320.7
2019-Jul-20 12:22N 52°54' W 130°18'718.1
2019-Jul-20 12:00N 53°00' W 130°24'427.0 150 / 131021.2 14.411.4
2019-Jul-20 11:50N 53°03' W 130°28'1220.2
2019-Jul-20 11:14N 53°14' W 130°37'310.7
2019-Jul-20 11:00N 53°12' W 130°36'8279.0 150 / 151021.3 14.411.6
2019-Jul-20 10:58N 53°19' W 130°41'919.8
2019-Jul-20 10:30N 53°27' W 130°48'1019.4
2019-Jul-20 10:00N 53°37' W 130°51'2137.4
2019-Jul-20 10:00N 53°36' W 130°48'1123.6 150 / 141021.510.8 13.910.9
2019-Jul-20 09:31N 53°46' W 130°56'1019.9
2019-Jul-20 09:00N 53°56' W 131°00'2142.3
2019-Jul-20 09:00N 53°54' W 131°00'1225.0 160 / 131021.610.8 14.510.9
2019-Jul-20 08:30N 54°06' W 131°02'1020.3
2019-Jul-20 08:00N 54°16' W 131°00'612.1
2019-Jul-20 07:30N 54°22' W 131°01'917.4
2019-Jul-20 07:00N 54°29' W 131°10'2138.2
2019-Jul-20 07:00N 54°30' W 131°06'917.7 170 / 91021.710.8 14.2
2019-Jul-20 06:29N 54°38' W 131°14'918.0
2019-Jul-20 06:00N 54°46' W 131°11'5462.1
2019-Jul-20 06:00N 54°42' W 131°06'1326.8 190 / 71021.810.8 14.3
2019-Jul-20 05:30N 54°55' W 131°09'510.2
2019-Jul-20 05:00N 55°00' W 131°06'747.0 180 / 141021.710.8 14.8
2019-Jul-20 04:50N 55°07' W 131°10'18 4.8
2019-Jul-20 01:00N 55°18' W 131°36'0 0.0 170 / 81020.7 5.4 16.1
2019-Jul-20 00:00N 55°18' W 131°36'0 0.0 200 / 101020.6 5.4 15.8
2019-Jul-19 23:00N 55°18' W 131°36'0 0.0 140 / 61021.3 5.4 17.0
2019-Jul-19 22:00N 55°18' W 131°36'0 0.0 220 / 71021.3 5.4 14.0
2019-Jul-19 21:00N 55°18' W 131°36'0 0.0 180 / 81020.3 5.4 17.0
2019-Jul-19 20:00N 55°18' W 131°36'0 0.0 160 / 31020.1 5.4 15.9
2019-Jul-19 19:00N 55°18' W 131°36'3 1.7 220 / 41019.9 5.4 15.2
2019-Jul-19 17:00N 55°18' W 131°42'1818.2 150 / 161020.3 5.4 14.0 19.0
2019-Jul-19 16:00N 55°30' W 132°06'1615.7 180 / 131019.3 5.4 14.0 21.0
2019-Jul-19 15:00N 55°42' W 132°24'2120.6 180 / 151017.3 13.112.9
2019-Jul-19 14:00N 56°00' W 132°42'1413.7 140 / 141017.3 5.4 14.0 21.0
2019-Jul-19 13:00N 56°12' W 132°54'1817.7 130 / 41016.8 12.712.3
2019-Jul-19 12:00N 56°18' W 133°24'1211.7 070 / 61016.3 10.610.2 9.0
2019-Jul-19 11:00N 56°12' W 133°42'2524.6 030 / 61016.2 5.4 11.411.0
2019-Jul-19 10:00N 55°54' W 134°12'198198.1 090 / 151016.0 5.4 11.511.3
2019-Jul-19 09:00N 59°12' W 134°24'156156.0 160 / 51015.710.8 11.711.5
2019-Jul-19 08:00N 56°36' W 134°24'1818.0 160 / 121015.710.8 12.011.6
2019-Jul-19 07:00N 56°54' W 134°24'2222.2 200 / 71015.310.8 12.3
2019-Jul-19 06:00N 57°12' W 134°00'1515.4 1015.0 11.4
2019-Jul-19 05:00N 57°24' W 133°42'2424.2 200 / 151014.7 5.4 12.5
2019-Jul-19 04:00N 57°48' W 133°48'2020.4 150 / 131014.3 5.4 11.2
2019-Jul-19 03:00N 58°06' W 134°06'9 8.7 170 / 221013.8 5.4 12.7
2019-Jul-19 02:00N 58°12' W 134°18'7 3.4 140 / 111013.5 2.2 13.0
2019-Jul-19 00:00N 58°18' W 134°24'0 0.0 140 / 61012.4 5.4 14.1
2019-Jul-18 23:00N 58°18' W 134°24'0 0.0 150 / 101011.3 5.4 14.0 21.0
2019-Jul-18 22:00N 58°18' W 134°24'0 0.0 140 / 121011.3 5.4 14.0 21.0
2019-Jul-18 21:00N 58°18' W 134°24'0 0.0 160 / 81011.3 5.4 13.0 21.0
2019-Jul-18 20:00N 58°18' W 134°24'0 0.0 140 / 101010.4 2.2 12.9
2019-Jul-18 17:00N 58°18' W 134°24'0 0.0 150 / 81008.3 5.4 12.0 20.0
2019-Jul-18 16:00N 58°18' W 134°24'6 6.0 140 / 121007.3 5.4 12.0 21.0
2019-Jul-18 15:00N 58°12' W 134°24'0 0.0 140 / 111006.3 5.4 12.0 21.0
2019-Jul-18 14:00N 58°12' W 134°24'6 6.3 130 / 91005.2 12.411.8
2019-Jul-18 13:00N 58°12' W 134°12'9 8.7 140 / 111004.5 12.511.6
2019-Jul-18 12:00N 58°06' W 134°24'9 8.7 150 / 51003.8 12.711.4
2019-Jul-18 11:00N 58°12' W 134°36'9 8.7 140 / 161003.210.8 13.311.4
2019-Jul-18 10:00N 58°18' W 134°48'1413.5 130 / 121002.910.8 13.110.4
2019-Jul-18 09:00N 58°30' W 135°00'1212.4 150 / 121002.210.8 14.3 9.7
2019-Jul-18 08:00N 58°42' W 135°06'31 6.3 200 / 131002.110.8 15.1 9.1
2019-Jul-18 03:00N 59°12' W 135°24'0 0.0 080 / 3998.5 5.4 17.8
2019-Jul-18 02:00N 59°12' W 135°24'0 0.0 030 / 9998.2 5.4 18.2
2019-Jul-18 01:00N 59°12' W 135°24'0 0.0 310 / 5998.1 5.4 18.2
2019-Jul-18 00:00N 59°12' W 135°24'0 0.0 030 / 8997.6 5.4 18.5
2019-Jul-17 22:00N 59°12' W 135°24'0 0.0 260 / 161002.3 5.4 17.0 20.0
2019-Jul-17 17:00N 59°12' W 135°24'0 0.0 120 / 51000.3 5.4 14.0 20.0
2019-Jul-17 16:00N 59°12' W 135°24'0 0.0 110 / 51000.3 5.4 14.0 20.0
2019-Jul-17 15:00N 59°12' W 135°24'0 0.0 060 / 51001.3 5.4 14.0 19.0
2019-Jul-17 14:00N 59°12' W 135°24'7 6.7 090 / 21000.0 12.712.3
2019-Jul-17 13:00N 59°06' W 135°18'7 6.7 010 / 141000.2 11.411.4
2019-Jul-17 12:00N 59°00' W 135°12'1212.0 340 / 171000.4 11.911.9
2019-Jul-17 11:00N 58°48' W 135°12'7 6.8 340 / 121000.610.8 12.712.5
2019-Jul-17 10:00N 58°42' W 135°06'1212.4 330 / 171001.110.8 13.413.2
2019-Jul-17 09:00N 58°30' W 135°00'6 6.0 360 / 111001.710.8 13.012.8
2019-Jul-17 08:00N 58°24' W 135°00'1212.0 330 / 161002.110.8 13.312.9
2019-Jul-17 07:00N 58°12' W 135°00'5 4.9 030 / 181002.5 5.4 13.7
2019-Jul-17 06:01N 58°09' W 135°07'3163.6
2019-Jul-17 06:00N 58°06' W 135°06'710.8 030 / 231002.1 5.4 13.9
2019-Jul-17 05:22N 58°10' W 135°17'3 8.9
2019-Jul-17 05:00N 58°11' W 135°22'62050.6
2019-Jul-17 05:00N 58°06' W 135°18'1019.1 070 / 251002.5 5.4 14.5
2019-Jul-17 04:29N 58°13' W 135°30'5 9.6
2019-Jul-17 04:00N 58°16' W 135°38'4258.8
2019-Jul-17 04:00N 58°12' W 135°36'815.6 110 / 181003.410.8 14.6
2019-Jul-17 03:30N 58°18' W 135°45'5 9.4
2019-Jul-17 03:01N 58°19' W 135°54'183.9
2019-Jul-17 03:00N 58°18' W 135°54'714.2 040 / 151003.810.8 12.7
2019-Jul-17 02:31N 58°25' W 135°58'611.9
2019-Jul-17 02:00N 58°30' W 136°03'714.0
2019-Jul-17 01:30N 58°37' W 136°05'714.1
2019-Jul-17 01:00N 58°42' W 136°13'146.6
2019-Jul-17 01:00N 58°42' W 136°12'815.7 300 / 101006.0 2.2 11.1
2019-Jul-17 00:30N 58°47' W 136°24'712.7
2019-Jul-17 00:00N 58°48' W 136°36'335.5 270 / 31006.7 2.2 9.7
2019-Jul-16 23:54N 58°51' W 136°37'910.1
2019-Jul-16 23:00N 58°54' W 136°54'7 6.8 140 / 21009.3 5.4 9.0 20.0
2019-Jul-16 22:00N 59°00' W 137°00'7 6.8 270 / 31010.3 2.2 9.0 22.0
2019-Jul-16 21:00N 58°54' W 136°54'0 0.0 080 / 31010.3 2.2 8.0 19.0
2019-Jul-16 20:00N 58°54' W 136°54'1413.8 270 / 141009.3 2.2 9.0
2019-Jul-16 19:00N 58°48' W 136°30'7 8.9 330 / 71010.1 2.2 9.1
2019-Jul-16 18:15N 58°45' W 136°19'313.4
2019-Jul-16 18:00N 58°43' W 136°14'1161.2
2019-Jul-16 18:00N 58°42' W 136°12'511.3 050 / 51010.1 2.2 10.5
2019-Jul-16 17:30N 58°38' W 136°06'612.8
2019-Jul-16 17:00N 58°31' W 136°04'2151.4
2019-Jul-16 17:00N 58°30' W 136°00'4 8.7 020 / 61011.3 5.4 11.0 20.0
2019-Jul-16 16:30N 58°26' W 135°59'5 9.6
2019-Jul-16 16:01N 58°21' W 136°01'3194.8
2019-Jul-16 16:00N 58°18' W 136°00'613.4 010 / 101012.3 5.4 13.0 20.0
2019-Jul-16 15:31N 58°18' W 136°12'917.3
2019-Jul-16 15:00N 58°12' W 136°24'8 8.8 070 / 141010.2 1.1 11.511.1
2019-Jul-16 14:08N 58°10' W 136°38'1210.8
2019-Jul-16 13:00N 58°06' W 137°00'1414.0 110 / 221010.8 12.011.2
2019-Jul-16 12:00N 58°12' W 137°24'1111.2 130 / 241010.4 13.413.0
2019-Jul-16 11:00N 58°18' W 137°42'1413.9 110 / 271010.910.8 13.212.5
2019-Jul-16 10:00N 58°24' W 138°06'1515.2 120 / 251011.310.8 13.812.5
2019-Jul-16 09:00N 58°36' W 138°24'1615.6 120 / 211011.710.8 14.412.2
2019-Jul-16 08:00N 58°36' W 138°54'1312.5 120 / 211012.010.8 14.011.4
2019-Jul-16 07:00N 58°36' W 139°18'1413.9 160 / 191012.210.8 15.0
2019-Jul-16 06:00N 58°42' W 139°42'1615.6 160 / 171012.410.8 14.9
2019-Jul-16 05:00N 58°42' W 140°12'1212.5 160 / 161012.510.8 15.0
2019-Jul-16 04:00N 58°42' W 140°36'1413.8 170 / 151012.710.8 15.1
2019-Jul-16 03:00N 58°48' W 141°00'1212.4 170 / 171012.910.8 14.9
2019-Jul-16 02:00N 58°48' W 141°24'1615.5 160 / 201013.110.8 15.0
2019-Jul-16 01:00N 58°48' W 141°54'1212.4 170 / 151013.310.8 15.1
2019-Jul-16 00:00N 58°48' W 142°18'1413.8 170 / 131013.310.8 14.5
2019-Jul-15 23:00N 58°54' W 142°42'1212.4 180 / 131015.310.8 15.0 20.0
2019-Jul-15 22:00N 58°54' W 143°06'1515.5 180 / 201015.310.8 15.0 20.0
2019-Jul-15 21:00N 58°54' W 143°36'1716.6 190 / 131013.310.8 14.0 20.0
2019-Jul-15 20:00N 59°00' W 144°06'1212.4 180 / 171012.110.8 14.0
2019-Jul-15 19:00N 59°00' W 144°30'1212.4 160 / 191012.010.8 13.9
2019-Jul-15 18:00N 59°00' W 144°54'2512.7 160 / 211011.610.8 14.0
2019-Jul-15 16:00N 59°06' W 145°42'1515.4 190 / 181011.310.8 14.0 20.0
2019-Jul-15 15:00N 59°06' W 146°12'2512.3 170 / 181010.9 13.713.3
2019-Jul-15 13:00N 59°18' W 146°54'1515.1 130 / 221010.8 13.813.4
2019-Jul-15 12:00N 59°30' W 147°12'3010.2 120 / 241010.9 13.6
2019-Jul-15 09:00N 59°30' W 148°12'2412.2 100 / 231010.810.8 13.313.1
2019-Jul-15 07:00N 59°42' W 148°54'1313.5 070 / 341010.6 2.2 12.8
2019-Jul-15 06:00N 59°48' W 149°18'6 6.0 060 / 251011.010.8 12.7
2019-Jul-15 05:00N 59°54' W 149°18'12 3.1 1011.7 5.4 12.9
2019-Jul-15 01:00N 60°06' W 149°24'0 0.0 190 / 151012.7 5.4 13.8
2019-Jul-15 00:00N 60°06' W 149°24'0 0.0 190 / 151012.6 2.2 13.8
2019-Jul-14 23:00N 60°06' W 149°24'0 0.0 180 / 161015.3 5.4 14.0 20.0
2019-Jul-14 22:00N 60°06' W 149°24'0 0.0 200 / 101013.3 5.4 14.0 20.0
2019-Jul-14 21:00N 60°06' W 149°24'0 0.0 210 / 61013.3 5.4 13.0 20.0
2019-Jul-14 20:00N 60°06' W 149°24'0 0.0 170 / 51012.8 2.2 13.0
2019-Jul-14 19:00N 60°06' W 149°24'0 0.0 140 / 31013.1 5.4 12.8
2019-Jul-14 18:00N 60°06' W 149°24'0 0.0 280 / 31013.3 2.2 13.0
2019-Jul-14 17:00N 60°06' W 149°24'0 0.0 250 / 21014.3 5.4 13.0 20.0
2019-Jul-14 16:00N 60°06' W 149°24'0 0.0 240 / 41014.3 5.4 12.0 19.0
2019-Jul-14 15:00N 60°06' W 149°24'12 4.1 210 / 21014.3 5.4 12.0 20.0
2019-Jul-14 12:00N 59°54' W 149°18'7 6.7 220 / 51013.9 13.3
2019-Jul-14 11:00N 59°48' W 149°24'1313.5 060 / 81014.2 5.4 12.911.6
2019-Jul-14 10:00N 59°42' W 149°00'1110.9 090 / 161013.910.8 13.711.8
2019-Jul-14 09:00N 59°36' W 148°42'1413.6 090 / 141013.910.8 13.811.6
2019-Jul-14 08:00N 59°30' W 148°18'1413.6 080 / 141013.810.8 13.811.6
2019-Jul-14 07:00N 59°24' W 147°54'1413.6 080 / 111013.710.8 13.4
2019-Jul-14 06:00N 59°18' W 147°30'1212.3 080 / 101013.710.8 13.4
2019-Jul-14 05:00N 59°18' W 147°06'1413.7 080 / 101013.810.8 13.7
2019-Jul-14 04:00N 59°12' W 146°42'1111.0 070 / 91013.810.8 13.7
2019-Jul-14 03:00N 59°06' W 146°24'2512.3 080 / 81014.010.8 14.0
2019-Jul-14 01:00N 59°06' W 145°36'1413.7 170 / 101014.310.8 14.4
2019-Jul-14 00:00N 59°00' W 145°12'1212.4 140 / 71014.610.8 15.2
2019-Jul-13 23:00N 59°00' W 144°48'1212.4 150 / 21016.3 5.4 15.0 20.0
2019-Jul-13 22:00N 59°00' W 144°24'1413.8 060 / 31015.3 5.4 15.0 20.0
2019-Jul-13 21:00N 58°54' W 144°00'1212.4 260 / 31015.3 5.4 14.0 20.0
2019-Jul-13 20:00N 58°54' W 143°36'1212.4 110 / 11014.810.8 14.4
2019-Jul-13 19:00N 58°54' W 143°12'1413.8 210 / 61015.0 5.4 13.8
2019-Jul-13 18:00N 58°48' W 142°48'3812.6 170 / 161015.010.8 13.6
2019-Jul-13 15:00N 58°42' W 141°36'1212.5 240 / 21015.1 13.9 9.9
2019-Jul-13 14:00N 58°42' W 141°12'1615.6 180 / 101015.3 14.010.2
2019-Jul-13 13:00N 58°42' W 140°42'1413.9 200 / 151015.3 14.010.2
2019-Jul-13 12:00N 58°36' W 140°18'1312.5 220 / 61015.710.8 14.111.1
2019-Jul-13 11:00N 58°36' W 139°54'   220 / 131016.110.8 13.911.1

Dump ship's entire track history